Dominia — ICFW — position and weather

sailwx.info

Track history (hours):
 
Tides and Currents Weather Stations Pressure Air Temp Water Temp Dewpoint Dewpoint Depression Visibility Wind Speed Wind Dir Waves Ship Positions

Dominia

Last reported at 2018-Jan-12 00:33 UTC. Time now 2018-Jan-19 19:44 UTC.
Position N 38°37' E 008°29'.

Length 166 m; draft 8.8 m.

Type: Ship. MMSI: 247273400.

Date/timePositionNaut miles runAvg speedWind from/ knotsBaromVisibWave heightAir tempDewpointWater temp
2018-Jan-12 00:33N 38°37' E 008°29'2 9.1
2018-Jan-12 00:18N 38°36' E 008°32'3 9.1
2018-Jan-11 23:58N 38°34' E 008°35'  
2018-Jan-06 03:48N 37°18' E 011°17'23514.9
2018-Jan-05 12:03N 37°21' E 006°22'114.9
2018-Jan-05 11:59N 37°21' E 006°20'1914.6
2018-Jan-05 10:43N 37°20' E 005°57'614.3
2018-Jan-05 10:18N 37°19' E 005°50'414.6
2018-Jan-05 10:01N 37°19' E 005°44'714.4
2018-Jan-05 09:31N 37°19' E 005°35'714.7
2018-Jan-05 09:01N 37°18' E 005°26'2215.0
2018-Jan-05 07:33N 37°17' E 004°59'15715.1
2018-Jan-04 21:06N 37°09' E 001°41'215.0
2018-Jan-04 20:59N 37°09' E 001°39'4514.6
2018-Jan-04 17:54N 37°06' E 000°43'512.1
2018-Jan-04 17:30N 37°06' E 000°37'1 1.9
2018-Jan-04 17:00N 37°05' E 000°36'1 1.2
2018-Jan-04 16:30N 37°04' E 000°36'1 1.1
2018-Jan-04 16:00N 37°04' E 000°35'1 1.0
2018-Jan-04 15:30N 37°04' E 000°35'1 1.0
2018-Jan-04 15:00N 37°03' E 000°35'1 0.9
2018-Jan-04 14:11N 37°02' E 000°34'0 0.9
2018-Jan-04 13:49N 37°02' E 000°34'0 0.8
2018-Jan-04 13:30N 37°02' E 000°34'0 0.9
2018-Jan-04 12:58N 37°02' E 000°33'0 0.9
2018-Jan-04 12:30N 37°02' E 000°33'0 1.0
2018-Jan-04 12:00N 37°01' E 000°32'1 1.0
2018-Jan-04 11:30N 37°01' E 000°32'20 1.3
2018-Jan-03 19:09N 36°44' E 000°17'0 1.3
2018-Jan-03 18:59N 36°44' E 000°16'1 1.3
2018-Jan-03 18:21N 36°44' E 000°15'0 1.3
2018-Jan-03 18:00N 36°44' E 000°15'1 1.4
2018-Jan-03 17:30N 36°43' E 000°14'1 1.5
2018-Jan-03 17:00N 36°43' E 000°13'1 1.5
2018-Jan-03 16:30N 36°43' E 000°12'1 1.6
2018-Jan-03 16:00N 36°42' E 000°12'1 1.6
2018-Jan-03 15:30N 36°42' E 000°11'1 1.7
2018-Jan-03 15:00N 36°41' E 000°10'1 1.7
2018-Jan-03 14:27N 36°41' E 000°09'1 1.7
2018-Jan-03 14:00N 36°41' E 000°08'1 1.9
2018-Jan-03 13:30N 36°40' E 000°07'  
Track history (hours):
 
Tides and Currents Weather Stations Pressure Air Temp Water Temp Dewpoint Dewpoint Depression Visibility Wind Speed Wind Dir Waves Ship Positions

Dominia

Last reported at 2018-Jan-12 00:33 UTC. Time now 2018-Jan-19 19:44 UTC.
Position N 38°37' E 008°29'.

Length 166 m; draft 8.8 m.

Type: Ship. MMSI: 247273400.

Date/timePositionNaut miles runAvg speedWind from/ knotsBaromVisibWave heightAir tempDewpointWater temp
2018-Jan-12 00:33N 38°37' E 008°29'2 9.1
2018-Jan-12 00:18N 38°36' E 008°32'3 9.1
2018-Jan-11 23:58N 38°34' E 008°35'  
2018-Jan-06 03:48N 37°18' E 011°17'23514.9
2018-Jan-05 12:03N 37°21' E 006°22'114.9
2018-Jan-05 11:59N 37°21' E 006°20'1914.6
2018-Jan-05 10:43N 37°20' E 005°57'614.3
2018-Jan-05 10:18N 37°19' E 005°50'414.6
2018-Jan-05 10:01N 37°19' E 005°44'714.4
2018-Jan-05 09:31N 37°19' E 005°35'714.7
2018-Jan-05 09:01N 37°18' E 005°26'2215.0
2018-Jan-05 07:33N 37°17' E 004°59'15715.1
2018-Jan-04 21:06N 37°09' E 001°41'215.0
2018-Jan-04 20:59N 37°09' E 001°39'4514.6
2018-Jan-04 17:54N 37°06' E 000°43'512.1
2018-Jan-04 17:30N 37°06' E 000°37'1 1.9
2018-Jan-04 17:00N 37°05' E 000°36'1 1.2
2018-Jan-04 16:30N 37°04' E 000°36'1 1.1
2018-Jan-04 16:00N 37°04' E 000°35'1 1.0
2018-Jan-04 15:30N 37°04' E 000°35'1 1.0
2018-Jan-04 15:00N 37°03' E 000°35'1 0.9
2018-Jan-04 14:11N 37°02' E 000°34'0 0.9
2018-Jan-04 13:49N 37°02' E 000°34'0 0.8
2018-Jan-04 13:30N 37°02' E 000°34'0 0.9
2018-Jan-04 12:58N 37°02' E 000°33'0 0.9
2018-Jan-04 12:30N 37°02' E 000°33'0 1.0
2018-Jan-04 12:00N 37°01' E 000°32'1 1.0
2018-Jan-04 11:30N 37°01' E 000°32'20 1.3
2018-Jan-03 19:09N 36°44' E 000°17'0 1.3
2018-Jan-03 18:59N 36°44' E 000°16'1 1.3
2018-Jan-03 18:21N 36°44' E 000°15'0 1.3
2018-Jan-03 18:00N 36°44' E 000°15'1 1.4
2018-Jan-03 17:30N 36°43' E 000°14'1 1.5
2018-Jan-03 17:00N 36°43' E 000°13'1 1.5
2018-Jan-03 16:30N 36°43' E 000°12'1 1.6
2018-Jan-03 16:00N 36°42' E 000°12'1 1.6
2018-Jan-03 15:30N 36°42' E 000°11'1 1.7
2018-Jan-03 15:00N 36°41' E 000°10'1 1.7
2018-Jan-03 14:27N 36°41' E 000°09'1 1.7
2018-Jan-03 14:00N 36°41' E 000°08'1 1.9
2018-Jan-03 13:30N 36°40' E 000°07'  

Dump ship's entire track history